LiveATC.Net - Listen to live air traffic control over the Internet!


ICAO: KDVO  IATA: DVO   Airport: Gnoss Field Airport
City: Novato   State/Province: California
Country: United States   Continent: North America
KDVO METAR Weather: KDVO 222155Z AUTO 30013KT 10SM BKN039 BKN045 16/07 A3007 RMK AO2
KDVO Flight Activity (FlightAware)
KDVO Airport Info   (AirNav) (iFlightPlanner)
KDVO VFR Sectional Chart   (iFlightPlanner) 
KDVO IFR Low Chart   (iFlightPlanner) 
KDVO CTAF
Feed Status: UP   Listeners: 0
Listen right in your browser - requires Flash (in browser, requires Flash)
Click here to listen with your own player (launches your MP3 player)
KDVO CTAF Audio Archives
FacilityFrequency
Novato CTAF123.075


NOTICE

Unauthorized use prohibited. See LiveATC.net Terms of Service


Find LiveATC Audio Streams


Airport/ARTCC Code

Frequency Search
(e.g., 124.400, 128.75)
Site-wide search
 


Browse LiveATC Feeds
LiveATC Coverage Map
Top 50 LiveATC Feeds
Bad Weather Areas

LiveATC FAQ
Offer a LiveATC Feed
Contact LiveATC.net
Press Inquiries

LiveATC on iPhone
LiveATC on Android

Windows Phone
Windows 8/10

LiveATC Mobile
(Mobile browser)

ATC Audio Archives
Interesting Recordings

LiveATC Forums


Home Page
About LiveATC.net
Make a Donation
LiveATC Store

Terms of Use
Privacy Policy

Canadian Air Freqs

AIRMETs/SIGMETs

FAA Airport Status
Nat'l Airspace Status
Arrival Demand Charts


Server Software By:
Icecast.org
Liquidsoap